Time;durP1;ratioP1;P1;durP2;ratioP2;P2;SDS_P1;SDS_P2;PMS_P1;PMS_P2;Temp;Humidity;BMP_temperature;BMP_pressure;BME280_temperature;BME280_humidity;BME280_pressure;Samples;Min_cycle;Max_cycle;Signal;HPM_P1;HPM_P2
2022/01/14 06:27:12;;;;;;;30.10;14.75;;;;;;;0.53;94.16;101481.37;6608882;26;208199;-89
2022/01/14 06:30:19;;;;;;;28.95;13.18;;;;;;;0.46;93.98;101467.37;6643632;26;33933;-90
2022/01/14 06:33:22;;;;;;;26.98;13.55;;;;;;;0.52;93.81;101469.19;6642777;26;34561;-90
2022/01/14 06:36:25;;;;;;;26.52;13.35;;;;;;;0.52;93.72;101463.97;6637758;26;34241;-89
2022/01/14 06:39:27;;;;;;;25.37;12.70;;;;;;;0.62;93.25;101464.94;6644880;26;33605;-90
2022/01/14 06:42:30;;;;;;;27.40;13.38;;;;;;;0.62;93.07;101472.78;6652827;26;34992;-90
2022/01/14 06:45:33;;;;;;;29.23;12.68;;;;;;;0.61;92.84;101473.63;6642956;26;33880;-89
2022/01/14 06:48:40;;;;;;;26.95;12.98;;;;;;;0.65;92.84;101481.50;6648495;26;34655;-88
2022/01/14 06:51:42;;;;;;;24.58;12.15;;;;;;;0.69;93.00;101477.19;6639167;26;33839;-88
2022/01/14 06:54:47;;;;;;;27.23;12.00;;;;;;;0.78;92.66;101469.44;6634736;26;33729;-89
2022/01/14 06:57:50;;;;;;;27.80;12.82;;;;;;;0.87;92.47;101468.66;6632767;26;34004;-89
2022/01/14 07:00:53;;;;;;;30.00;12.40;;;;;;;0.93;92.23;101475.66;6635413;26;34176;-89
2022/01/14 07:03:56;;;;;;;24.63;11.90;;;;;;;0.91;92.13;101475.62;6636818;26;34714;-89
2022/01/14 07:06:59;;;;;;;21.48;10.60;;;;;;;0.95;92.27;101466.06;6638687;26;34521;-89
2022/01/14 07:10:04;;;;;;;22.30;10.20;;;;;;;1.13;92.01;101449.66;6645283;26;34013;-90
2022/01/14 07:13:09;;;;;;;27.17;11.23;;;;;;;1.27;91.46;101452.38;6631195;26;34703;-91
2022/01/14 07:23:28;;;;;;;20.33;10.93;;;;;;;1.48;89.86;101454.25;6648413;26;20039;-90
2022/01/14 07:26:31;;;;;;;24.15;10.93;;;;;;;1.42;90.45;101450.72;6642344;26;34530;-92
2022/01/14 07:33:25;;;;;;;20.40;10.40;;;;;;;1.60;89.86;101450.81;6639050;26;20063;-90
2022/01/14 07:47:49;;;;;;;20.75;9.02;;;;;;;2.10;87.40;101457.97;6651774;26;20055;-91
2022/01/14 08:17:28;;;;;;;16.77;8.88;;;;;;;2.47;84.86;101450.19;6648567;26;34933;-91
2022/01/14 08:24:15;;;;;;;19.45;9.45;;;;;;;2.85;83.00;101443.22;6640014;26;20408;-90
2022/01/14 08:38:26;;;;;;;17.12;9.02;;;;;;;2.78;83.53;101408.31;6637802;26;20063;-90
2022/01/14 08:41:30;;;;;;;17.00;8.85;;;;;;;2.93;82.50;101388.19;6642781;26;33811;-90
2022/01/14 08:44:33;;;;;;;17.45;9.25;;;;;;;2.93;82.74;101381.16;6642155;26;34301;-89
2022/01/14 08:47:36;;;;;;;15.77;8.70;;;;;;;3.01;82.29;101391.66;6652606;26;34172;-90
2022/01/14 09:02:02;;;;;;;20.85;8.48;;;;;;;3.44;79.96;101364.44;6645210;26;20543;-90
2022/01/14 09:05:10;;;;;;;19.90;7.87;;;;;;;3.45;79.72;101368.81;6636521;26;34226;-89
2022/01/14 09:08:13;;;;;;;16.35;8.05;;;;;;;3.47;79.67;101359.16;6634992;26;33872;-89
2022/01/14 09:11:16;;;;;;;13.38;7.55;;;;;;;3.56;79.09;101383.63;6637217;26;34951;-90
2022/01/14 09:14:18;;;;;;;15.77;7.22;;;;;;;3.67;78.60;101381.81;6631862;26;33887;-88
2022/01/14 09:17:21;;;;;;;14.52;7.68;;;;;;;3.82;78.09;101364.25;6636562;26;34466;-87
2022/01/14 09:20:24;;;;;;;15.43;7.53;;;;;;;3.86;77.83;101345.84;6636129;26;33432;-86
2022/01/14 09:23:33;;;;;;;13.52;7.15;;;;;;;3.85;77.45;101354.63;6636514;26;34491;-86
2022/01/14 09:26:38;;;;;;;14.45;7.12;;;;;;;3.95;76.65;101336.16;6636749;26;33636;-87
2022/01/14 09:29:44;;;;;;;14.87;7.82;;;;;;;4.06;76.35;101338.75;6636020;26;33592;-87
2022/01/14 09:32:48;;;;;;;13.80;7.45;;;;;;;4.35;75.28;101340.25;6634920;26;34106;-87
2022/01/14 09:35:51;;;;;;;13.82;7.53;;;;;;;6.60;66.23;101324.22;6636212;26;34214;-89
2022/01/14 09:38:53;;;;;;;14.77;7.18;;;;;;;8.25;58.77;101326.94;6636032;26;33656;-87
2022/01/14 09:41:56;;;;;;;14.20;7.87;;;;;;;8.29;58.53;101339.19;6635265;26;34237;-90
2022/01/14 09:44:58;;;;;;;15.93;8.43;;;;;;;8.13;58.54;101344.84;6638346;26;34065;-89
2022/01/14 09:55:04;;;;;;;14.73;8.07;;;;;;;12.63;44.02;101332.72;6648901;26;20099;-87
2022/01/14 09:58:08;;;;;;;14.73;8.00;;;;;;;12.09;44.51;101341.19;6646081;26;33901;-87
2022/01/14 10:01:17;;;;;;;12.68;7.25;;;;;;;12.92;43.44;101329.72;6650532;26;33749;-89
2022/01/14 10:15:43;;;;;;;15.65;8.18;;;;;;;9.04;52.12;101319.62;6650474;26;20059;-89
2022/01/14 10:22:27;;;;;;;15.60;7.70;;;;;;;8.79;53.88;101306.22;6591035;27;34988;-88
2022/01/14 10:25:30;;;;;;;14.90;7.47;;;;;;;7.72;57.36;101313.19;6581417;27;33892;-88
2022/01/14 10:28:33;;;;;;;12.75;6.55;;;;;;;7.36;59.09;101310.47;6580009;27;33691;-86
2022/01/14 10:31:37;;;;;;;12.63;6.90;;;;;;;7.67;59.60;101305.41;6582429;27;34609;-87
2022/01/14 10:34:40;;;;;;;10.80;6.82;;;;;;;7.81;59.00;101299.75;6581835;27;34868;-87
2022/01/14 10:37:43;;;;;;;10.85;6.72;;;;;;;7.81;58.71;101301.56;6596949;27;34651;-87
2022/01/14 10:40:54;;;;;;;12.15;7.32;;;;;;;7.48;57.58;101280.28;6587945;27;35194;-89
2022/01/14 10:43:58;;;;;;;;;;;;;;;7.75;57.09;101267.37;6580376;27;34267;-88
2022/01/14 10:47:16;;;;;;;13.77;7.28;;;;;;;7.65;57.50;101261.44;6588037;27;34818;-87
2022/01/14 10:50:31;;;;;;;13.50;7.10;;;;;;;7.67;57.52;101252.56;6588058;27;33925;-88
2022/01/14 10:53:42;;;;;;;13.23;7.60;;;;;;;6.60;61.47;101249.53;6588365;27;34126;-88
2022/01/14 10:56:45;;;;;;;18.30;7.43;;;;;;;6.78;61.09;101265.91;6593064;27;34236;-87
2022/01/14 10:59:50;;;;;;;17.02;7.82;;;;;;;6.64;61.53;101259.12;6592486;27;34101;-88
2022/01/14 11:02:53;;;;;;;17.83;7.53;;;;;;;6.60;61.61;101257.44;6597405;27;35093;-89
2022/01/14 11:06:14;;;;;;;12.65;7.50;;;;;;;6.49;62.47;101246.25;6597838;27;34799;-89
2022/01/14 11:09:22;;;;;;;15.18;7.75;;;;;;;6.71;61.80;101246.69;6597798;27;35970;-89
2022/01/14 11:12:40;;;;;;;15.70;7.57;;;;;;;7.03;61.07;101257.50;6597502;27;33799;-90
2022/01/14 11:15:43;;;;;;;13.55;7.70;;;;;;;6.36;63.39;101254.37;6591760;27;34440;-91
2022/01/14 11:18:46;;;;;;;11.88;6.72;;;;;;;6.69;62.42;101243.22;6586485;27;33939;-89
2022/01/14 11:44:47;;;;;;;10.20;6.12;;;;;;;6.68;63.23;101201.94;6637629;26;20063;-89
2022/01/14 11:47:52;;;;;;;13.70;7.30;;;;;;;10.10;56.29;101183.88;6636665;26;33959;-90
2022/01/14 11:51:00;;;;;;;12.55;7.30;;;;;;;7.75;58.72;101190.78;6639403;26;34689;-91
2022/01/14 12:32:14;;;;;;;11.18;5.97;;;;;;;6.67;62.51;101143.06;6639617;26;20063;-88
2022/01/14 12:35:21;;;;;;;13.05;6.20;;;;;;;6.61;62.43;101151.09;6634091;26;34427;-86
2022/01/14 12:38:26;;;;;;;11.98;6.10;;;;;;;6.67;62.01;101156.25;6634761;26;35248;-87
2022/01/14 12:41:28;;;;;;;13.35;6.15;;;;;;;6.41;62.70;101146.22;6637652;26;35790;-89
2022/01/14 12:44:37;;;;;;;16.20;6.22;;;;;;;6.44;62.82;101169.91;6634719;26;34415;-89
2022/01/14 12:47:42;;;;;;;13.07;5.90;;;;;;;6.50;62.63;101159.22;6634601;26;34041;-89
2022/01/14 12:50:46;;;;;;;12.70;6.37;;;;;;;6.51;62.51;101166.22;6634195;26;34538;-88
2022/01/14 12:53:52;;;;;;;14.13;6.65;;;;;;;6.33;63.21;101170.97;6615257;26;34149;-89
2022/01/14 12:56:56;;;;;;;12.13;6.57;;;;;;;6.27;63.37;101173.72;6634361;26;34070;-88
2022/01/14 12:59:59;;;;;;;13.35;6.62;;;;;;;6.21;63.79;101160.66;6632487;26;35353;-88
2022/01/14 13:03:22;;;;;;;11.12;6.00;;;;;;;6.27;63.70;101154.38;6635546;26;33980;-89
2022/01/14 13:06:28;;;;;;;11.07;6.32;;;;;;;6.10;64.13;101146.81;6634181;26;34000;-88
2022/01/14 13:09:34;;;;;;;10.65;6.40;;;;;;;6.17;64.19;101141.41;6641633;26;33982;-89
2022/01/14 13:12:40;;;;;;;13.82;5.90;;;;;;;6.12;64.34;101142.37;6639252;26;33955;-88
2022/01/14 13:15:43;;;;;;;10.82;6.05;;;;;;;6.18;64.26;101126.44;6648174;26;35258;-88
2022/01/14 13:18:47;;;;;;;12.75;6.25;;;;;;;6.15;64.29;101121.25;6636126;26;34556;-90
2022/01/14 13:21:50;;;;;;;13.95;6.53;;;;;;;6.17;64.22;101122.97;6636589;26;33984;-89
2022/01/14 13:24:59;;;;;;;12.02;6.20;;;;;;;6.15;64.46;101114.22;6643477;26;34151;-88
2022/01/14 13:28:03;;;;;;;10.70;6.30;;;;;;;6.25;64.32;101116.66;6647631;26;34310;-89
2022/01/14 13:31:10;;;;;;;13.15;6.47;;;;;;;6.16;64.65;101108.06;6655758;26;35323;-90
2022/01/14 13:34:13;;;;;;;11.15;6.43;;;;;;;6.25;64.13;101092.97;6655277;26;34917;-88
2022/01/14 13:37:18;;;;;;;9.57;6.03;;;;;;;6.15;64.64;101087.00;6650343;26;35288;-88
2022/01/14 13:40:27;;;;;;;11.98;6.72;;;;;;;6.14;64.75;101094.03;6637012;26;34859;-88
2022/01/14 13:43:33;;;;;;;13.55;6.45;;;;;;;6.03;65.12;101091.63;6642080;26;33870;-90
2022/01/14 13:46:45;;;;;;;13.27;6.78;;;;;;;6.03;65.25;101085.50;6637459;26;33711;-89
2022/01/14 13:50:07;;;;;;;12.23;6.95;;;;;;;6.12;65.11;101085.31;6636784;26;33976;-90
2022/01/14 13:53:11;;;;;;;;;;;;;;;5.94;65.70;101090.00;6642603;26;33997;-90
2022/01/14 13:56:18;;;;;;;15.77;6.60;;;;;;;5.97;65.74;101069.75;6640240;26;34192;-89
2022/01/14 13:59:21;;;;;;;11.38;6.30;;;;;;;6.00;65.72;101081.13;6635042;26;33944;-89
2022/01/14 14:02:27;;;;;;;20.55;6.82;;;;;;;5.93;65.95;101074.22;6638321;26;34922;-89
2022/01/14 14:05:44;;;;;;;10.85;6.47;;;;;;;6.05;65.30;101092.44;6637266;26;33952;-90
2022/01/14 14:12:42;;;;;;;13.75;6.50;;;;;;;5.84;65.90;101106.00;6636379;26;35499;-90
2022/01/14 14:15:48;;;;;;;13.20;6.62;;;;;;;5.75;66.26;101096.50;6637327;26;33573;-90
2022/01/14 14:18:56;;;;;;;14.77;6.57;;;;;;;5.70;66.57;101100.97;6637278;26;34359;-90
2022/01/14 14:25:37;;;;;;;11.68;6.32;;;;;;;5.65;66.83;101115.06;6631470;26;20147;-89
2022/01/14 14:28:40;;;;;;;15.57;6.60;;;;;;;5.70;66.87;101100.97;6636202;26;34135;-90
2022/01/14 14:31:43;;;;;;;13.50;6.75;;;;;;;5.55;67.51;101110.00;6638063;26;33862;-89
2022/01/14 14:34:46;;;;;;;10.27;6.45;;;;;;;5.55;67.54;101104.75;6640101;26;34400;-89
2022/01/14 14:37:53;;;;;;;13.00;6.57;;;;;;;5.54;67.55;101109.16;6637601;26;34248;-87
2022/01/14 14:40:58;;;;;;;12.45;6.72;;;;;;;5.50;67.83;101110.97;6636046;26;34235;-89
2022/01/14 14:44:01;;;;;;;11.60;6.60;;;;;;;5.44;68.15;101111.06;6637200;26;33937;-87
2022/01/14 14:47:07;;;;;;;12.93;6.32;;;;;;;5.44;68.42;101107.56;6635706;26;33789;-86
2022/01/14 14:50:16;;;;;;;13.20;7.45;;;;;;;5.36;68.58;101111.19;6636014;26;35407;-87
2022/01/14 14:53:19;;;;;;;11.68;6.82;;;;;;;5.32;68.85;101112.13;6642308;26;33843;-87
2022/01/14 14:56:23;;;;;;;11.70;6.78;;;;;;;5.26;69.19;101110.47;6642781;26;34731;-88
2022/01/14 14:59:26;;;;;;;13.10;7.20;;;;;;;5.24;69.41;101119.28;6641017;26;34205;-87
2022/01/14 15:02:29;;;;;;;13.25;6.95;;;;;;;5.29;69.35;101111.31;6639089;26;34368;-87
2022/01/14 15:05:32;;;;;;;15.27;6.93;;;;;;;5.21;69.73;101116.69;6635545;26;34025;-86
2022/01/14 15:08:35;;;;;;;12.93;6.62;;;;;;;5.17;70.00;101118.50;6635372;26;34259;-90
2022/01/14 15:11:38;;;;;;;14.18;7.53;;;;;;;5.16;70.22;101118.50;6635798;26;34103;-87
2022/01/14 15:14:45;;;;;;;12.98;6.72;;;;;;;5.08;70.66;101106.34;6635640;26;33911;-87
2022/01/14 15:20:56;;;;;;;12.37;7.10;;;;;;;5.10;70.94;101101.06;6637482;26;34786;-86
2022/01/14 15:23:59;;;;;;;14.87;7.10;;;;;;;5.08;71.07;101106.34;6641407;26;34076;-87
2022/01/14 15:27:02;;;;;;;10.65;5.90;;;;;;;5.06;71.39;101102.88;6643754;26;34660;-87
2022/01/14 15:30:06;;;;;;;12.63;6.90;;;;;;;5.15;71.10;101103.62;6649582;26;34531;-86
2022/01/14 15:33:09;;;;;;;14.32;6.78;;;;;;;5.03;71.51;101083.66;6650840;26;35252;-87
2022/01/14 15:36:12;;;;;;;11.70;6.70;;;;;;;4.97;71.80;101092.47;6653114;26;35190;-87
2022/01/14 15:39:15;;;;;;;11.25;6.10;;;;;;;4.86;72.34;101100.53;6643621;26;34551;-86
2022/01/14 15:42:18;;;;;;;12.10;6.50;;;;;;;4.84;72.36;101097.91;6638172;26;33659;-87
2022/01/14 15:45:20;;;;;;;13.00;6.82;;;;;;;4.82;72.59;101088.31;6638367;26;33790;-88
2022/01/14 15:48:23;;;;;;;11.30;6.30;;;;;;;4.71;73.17;101083.22;6636579;26;34632;-86
2022/01/14 15:51:26;;;;;;;11.82;6.55;;;;;;;4.70;73.33;101070.97;6640293;26;34459;-87
2022/01/14 15:54:29;;;;;;;10.45;6.43;;;;;;;4.67;73.61;101073.66;6651097;26;35481;-87
2022/01/14 15:57:32;;;;;;;10.93;6.53;;;;;;;4.66;73.74;101066.63;6636965;26;34100;-87
2022/01/14 16:00:35;;;;;;;14.93;6.80;;;;;;;4.61;74.10;101061.44;6636652;26;33933;-87
2022/01/14 16:03:38;;;;;;;11.48;6.82;;;;;;;4.58;74.24;101053.63;6646017;26;34171;-87
2022/01/14 16:06:41;;;;;;;11.98;6.60;;;;;;;4.48;74.75;101060.75;6640973;26;34112;-87
2022/01/14 16:09:44;;;;;;;10.68;6.45;;;;;;;4.68;74.26;101057.84;6645594;26;34074;-87
2022/01/14 16:12:50;;;;;;;12.07;6.85;;;;;;;4.67;74.16;101044.75;6642595;26;35076;-87
2022/01/14 16:15:53;;;;;;;11.77;6.60;;;;;;;4.64;74.37;101037.78;6641970;26;34054;-87
2022/01/14 16:18:56;;;;;;;11.93;6.70;;;;;;;4.58;74.59;101037.84;6637100;26;34274;-86
2022/01/14 16:22:00;;;;;;;11.82;6.53;;;;;;;4.58;74.76;101041.34;6635112;26;33759;-86
2022/01/14 16:25:03;;;;;;;10.48;6.22;;;;;;;4.69;74.26;101029.81;6635878;26;35380;-87
